^^
Meteosantamaria
 
Giornaliero Rapporto per Ottobre 20, 2017 Unità:  Metrico    Imperiale   Entrambi
« Precedente
Prossimo »
Giornaliero Settimanale Mensile Annuale Personalizzato
  Attuale: Max: Min: Media:
Temperatura: 13.2 °C 23.5 °C 6.6 °C 14.1 °C
Punto di rugiada: 9.1 °C 13.1 °C 5.3 °C 8.9 °C
Umidità;: 76% 97% 47% 73%
Vel.Vento: 2.3km/h 12.1km/h 0.0km/h 5.1km/h
Raffiche: 0.0km/h 12.1km/h - -
DirezioneWNW - - SSE
Pressione: 1020.9 hPa 1020.9 hPa 1016.8 hPa -
Pioggia: 0.0 mm      
Historical Graphs
 
 
Dati di Ottobre 20, 2017
Ora Temperatura Punto di rugiada Pressione Direzione Vento Raffiche Umidità Intensità pioggia Condizioni del cielo
00:04 11.3 °C 6.2 °C 1016.8 hPa ENE 5.6 km/h 5.6 km/h 71% 0.0 mm CLR
00:09 11.4 °C 6.6 °C 1016.8 hPa NE 6.4 km/h 6.4 km/h 72% 0.0 mm CLR
00:14 11.4 °C 6.6 °C 1016.8 hPa East 5.6 km/h 5.6 km/h 72% 0.0 mm CLR
00:19 11.4 °C 6.6 °C 1016.8 hPa ENE 5.6 km/h 5.6 km/h 72% 0.0 mm CLR
00:24 11.3 °C 6.6 °C 1017.8 hPa NE 5.6 km/h 5.6 km/h 73% 0.0 mm CLR
00:29 11.2 °C 6.6 °C 1017.8 hPa NE 5.6 km/h 5.6 km/h 73% 0.0 mm CLR
00:34 11.1 °C 6.4 °C 1017.8 hPa NE 5.6 km/h 5.6 km/h 73% 0.0 mm CLR
00:39 11.0 °C 6.6 °C 1016.8 hPa NNE 5.6 km/h 5.6 km/h 74% 0.0 mm CLR
00:44 10.8 °C 6.6 °C 1016.8 hPa North 3.7 km/h 3.7 km/h 75% 0.0 mm CLR
00:54 10.5 °C 6.4 °C 1017.8 hPa Calm     76% 0.0 mm CLR
00:59 10.5 °C 6.6 °C 1017.8 hPa NNW 3.7 km/h 3.7 km/h 77% 0.0 mm CLR
01:04 10.5 °C 6.4 °C 1017.8 hPa Calm     76% 0.0 mm CLR
01:09 10.4 °C 6.3 °C 1017.8 hPa SW 3.1 km/h   76% 0.0 mm CLR
01:14 10.5 °C 6.4 °C 1017.8 hPa Calm     76% 0.0 mm CLR
01:19 10.5 °C 6.4 °C 1017.8 hPa Calm     76% 0.0 mm CLR
01:24 10.4 °C 6.3 °C 1017.8 hPa Calm     76% 0.0 mm CLR
01:29 10.3 °C 6.3 °C 1017.8 hPa NNE 2.3 km/h 2.3 km/h 76% 0.0 mm CLR
01:34 10.2 °C 6.2 °C 1017.8 hPa Calm     76% 0.0 mm CLR
01:39 10.1 °C 6.1 °C 1017.8 hPa NE 3.7 km/h 3.7 km/h 76% 0.0 mm CLR
01:44 9.9 °C 6.1 °C 1017.8 hPa Calm     77% 0.0 mm CLR
01:49 9.9 °C 6.2 °C 1017.8 hPa Calm     78% 0.0 mm CLR
01:54 9.9 °C 6.2 °C 1017.8 hPa Calm     78% 0.0 mm CLR
01:59 9.9 °C 6.2 °C 1017.8 hPa NE 5.6 km/h 5.6 km/h 78% 0.0 mm CLR
02:04 9.9 °C 6.2 °C 1017.8 hPa East 5.6 km/h 5.6 km/h 78% 0.0 mm CLR
02:09 9.9 °C 6.2 °C 1017.8 hPa ENE 5.6 km/h 5.6 km/h 78% 0.0 mm CLR
02:14 9.9 °C 6.2 °C 1017.8 hPa ENE 6.4 km/h 6.4 km/h 78% 0.0 mm CLR
02:19 9.8 °C 6.3 °C 1017.8 hPa NE 5.6 km/h 5.6 km/h 79% 0.0 mm CLR
02:24 9.7 °C 6.2 °C 1018.8 hPa SE 5.6 km/h 5.6 km/h 79% 0.0 mm CLR
02:29 9.7 °C 6.2 °C 1018.8 hPa ESE 5.6 km/h 5.6 km/h 79% 0.0 mm CLR
02:34 9.7 °C 6.2 °C 1018.8 hPa SE 5.6 km/h 5.6 km/h 79% 0.0 mm CLR
02:39 9.7 °C 6.2 °C 1018.8 hPa SE 5.6 km/h 5.6 km/h 79% 0.0 mm CLR
02:44 9.8 °C 6.5 °C 1018.8 hPa East 4.2 km/h 4.2 km/h 80% 0.0 mm CLR
02:49 9.8 °C 6.5 °C 1018.8 hPa East 4.2 km/h 4.2 km/h 80% 0.0 mm CLR
02:54 9.7 °C 6.4 °C 1018.8 hPa East 3.7 km/h 3.7 km/h 80% 0.0 mm CLR
02:59 9.8 °C 6.5 °C 1018.8 hPa WSW 6.9 km/h 6.9 km/h 80% 0.0 mm CLR
03:04 9.6 °C 6.3 °C 1018.8 hPa West 6.0 km/h 6.0 km/h 80% 0.0 mm CLR
03:09 9.4 °C 6.3 °C 1018.8 hPa SW 7.4 km/h 7.4 km/h 81% 0.0 mm CLR
03:14 9.3 °C 6.2 °C 1018.8 hPa WSW 5.6 km/h 5.6 km/h 81% 0.0 mm CLR
03:19 9.2 °C 6.1 °C 1018.8 hPa Calm     81% 0.0 mm CLR
03:24 9.0 °C 6.1 °C 1018.8 hPa ENE 5.6 km/h 5.6 km/h 82% 0.0 mm CLR
03:29 8.8 °C 5.9 °C 1018.8 hPa ENE 7.4 km/h 7.4 km/h 82% 0.0 mm CLR
03:34 8.6 °C 5.7 °C 1018.8 hPa East 5.6 km/h 5.6 km/h 82% 0.0 mm CLR
03:39 8.7 °C 6.0 °C 1018.8 hPa NE 5.6 km/h 5.6 km/h 83% 0.0 mm CLR
03:44 8.7 °C 6.2 °C 1018.8 hPa ENE 5.6 km/h 5.6 km/h 84% 0.0 mm CLR
03:49 8.8 °C 6.2 °C 1018.8 hPa East 6.0 km/h 6.0 km/h 84% 0.0 mm CLR
03:54 8.9 °C 6.5 °C 1017.8 hPa SE 7.4 km/h 7.4 km/h 85% 0.0 mm CLR
03:59 9.0 °C 6.6 °C 1017.8 hPa East 6.0 km/h 6.0 km/h 85% 0.0 mm CLR
04:04 9.0 °C 6.6 °C 1017.8 hPa Calm     85% 0.0 mm CLR
04:09 9.0 °C 6.6 °C 1017.8 hPa Calm     85% 0.0 mm CLR
04:14 9.1 °C 6.7 °C 1017.8 hPa Calm     85% 0.0 mm CLR
04:19 9.1 °C 6.7 °C 1017.8 hPa SW 7.4 km/h 7.4 km/h 85% 0.0 mm CLR
04:24 8.9 °C 6.3 °C 1018.8 hPa West 6.4 km/h 6.4 km/h 84% 0.0 mm CLR
04:29 8.7 °C 6.3 °C 1018.8 hPa WSW 3.7 km/h   85% 0.0 mm CLR
04:34 8.7 °C 6.3 °C 1018.8 hPa Calm     85% 0.0 mm CLR
04:39 8.6 °C 6.2 °C 1018.8 hPa Calm     85% 0.0 mm CLR
04:44 8.5 °C 6.1 °C 1018.8 hPa Calm     85% 0.0 mm CLR
04:49 8.4 °C 6.0 °C 1018.8 hPa Calm     85% 0.0 mm CLR
04:54 8.3 °C 5.9 °C 1018.8 hPa NE 4.2 km/h   85% 0.0 mm CLR
04:59 8.1 °C 5.9 °C 1018.8 hPa NE 5.6 km/h 5.6 km/h 86% 0.0 mm CLR
05:04 8.0 °C 5.8 °C 1018.8 hPa ENE 5.6 km/h 5.6 km/h 86% 0.0 mm CLR
05:09 8.0 °C 5.8 °C 1018.8 hPa ENE 3.7 km/h 3.7 km/h 86% 0.0 mm CLR
05:14 8.2 °C 6.2 °C 1018.8 hPa SW 3.7 km/h 3.7 km/h 87% 0.0 mm CLR
05:19 8.3 °C 6.3 °C 1018.8 hPa SW 5.6 km/h 5.6 km/h 87% 0.0 mm CLR
05:24 8.3 °C 6.3 °C 1018.8 hPa SSW 3.7 km/h   87% 0.0 mm CLR
05:26 8.3 °C 6.3 °C 1018.8 hPa Calm     87% 0.0 mm CLR
05:30 8.3 °C 6.3 °C 1018.8 hPa East 5.6 km/h 5.6 km/h 87% 0.0 mm CLR
05:35 8.3 °C 6.3 °C 1018.8 hPa SE 5.6 km/h 5.6 km/h 87% 0.0 mm CLR
05:40 8.1 °C 6.1 °C 1018.8 hPa Calm     87% 0.0 mm CLR
05:45 8.0 °C 5.9 °C 1018.8 hPa Calm     87% 0.0 mm CLR
05:50 8.0 °C 5.9 °C 1018.8 hPa ESE 2.3 km/h   87% 0.0 mm CLR
05:55 7.8 °C 5.8 °C 1018.8 hPa East 3.7 km/h 3.7 km/h 87% 0.0 mm CLR
06:00 7.7 °C 5.8 °C 1018.8 hPa East 3.7 km/h 3.7 km/h 88% 0.0 mm CLR
06:05 7.7 °C 5.8 °C 1018.8 hPa Calm     88% 0.0 mm CLR
06:10 7.8 °C 6.1 °C 1018.8 hPa East 3.7 km/h   89% 0.0 mm CLR
06:15 7.8 °C 6.1 °C 1018.8 hPa Calm     89% 0.0 mm CLR
06:20 7.8 °C 6.1 °C 1018.8 hPa Calm     89% 0.0 mm CLR
06:25 7.8 °C 6.1 °C 1018.8 hPa Calm     89% 0.0 mm CLR
06:30 7.8 °C 6.1 °C 1018.8 hPa Calm     89% 0.0 mm CLR
06:35 7.7 °C 6.0 °C 1018.8 hPa East 3.7 km/h 3.7 km/h 89% 0.0 mm CLR
06:40 7.7 °C 6.0 °C 1018.8 hPa East 5.6 km/h 5.6 km/h 89% 0.0 mm CLR
06:45 7.6 °C 5.9 °C 1018.8 hPa East 5.6 km/h 5.6 km/h 89% 0.0 mm CLR
06:50 7.5 °C 5.8 °C 1018.8 hPa East 4.2 km/h 4.2 km/h 89% 0.0 mm CLR
06:55 7.5 °C 5.8 °C 1018.8 hPa East 3.7 km/h 3.7 km/h 89% 0.0 mm CLR
07:00 7.5 °C 5.9 °C 1018.8 hPa East 3.7 km/h 3.7 km/h 90% 0.0 mm CLR
07:05 7.5 °C 5.9 °C 1018.8 hPa Calm     90% 0.0 mm CLR
07:10 7.5 °C 5.9 °C 1018.8 hPa Calm     90% 0.0 mm CLR
07:15 7.4 °C 6.0 °C 1018.8 hPa Calm     91% 0.0 mm CLR
07:20 7.1 °C 5.7 °C 1018.8 hPa NNE 5.6 km/h 5.6 km/h 91% 0.0 mm CLR
07:25 6.7 °C 5.3 °C 1018.8 hPa NNE 5.6 km/h 5.6 km/h 91% 0.0 mm CLR
07:30 6.7 °C 5.3 °C 1018.8 hPa Calm     91% 0.0 mm CLR
07:35 6.7 °C 5.5 °C 1018.8 hPa Calm     92% 0.0 mm CLR
07:40 6.7 °C 5.8 °C 1018.8 hPa NW 5.6 km/h 5.6 km/h 94% 0.0 mm CLR
07:45 6.6 °C 5.7 °C 1018.8 hPa Calm     94% 0.0 mm CLR
07:50 6.7 °C 5.9 °C 1018.8 hPa Calm     95% 0.0 mm CLR
07:55 6.8 °C 6.3 °C 1018.8 hPa Calm     97% 0.0 mm CLR
08:00 6.8 °C 6.2 °C 1018.8 hPa NNE 4.7 km/h 4.7 km/h 96% 0.0 mm CLR
08:05 6.7 °C 6.1 °C 1018.8 hPa NE 3.7 km/h 3.7 km/h 96% 0.0 mm CLR
08:10 6.8 °C 6.1 °C 1018.8 hPa NE 3.7 km/h 3.7 km/h 95% 0.0 mm CLR
08:15 7.0 °C 6.3 °C 1018.8 hPa NE 3.7 km/h 3.7 km/h 95% 0.0 mm CLR
08:20 7.2 °C 6.4 °C 1018.8 hPa East 4.2 km/h 4.2 km/h 95% 0.0 mm CLR
08:25 7.5 °C 6.9 °C 1018.8 hPa Calm     96% 0.0 mm CLR
08:30 7.9 °C 7.3 °C 1018.8 hPa Calm     96% 0.0 mm CLR
08:35 8.2 °C 7.6 °C 1018.8 hPa East 2.7 km/h 2.7 km/h 96% 0.0 mm CLR
08:40 8.3 °C 7.6 °C 1019.9 hPa Calm     95% 0.0 mm CLR
08:45 8.6 °C 7.8 °C 1019.9 hPa SW 7.7 km/h 7.7 km/h 95% 0.0 mm CLR
08:50 8.6 °C 7.6 °C 1019.9 hPa SW 6.0 km/h 6.0 km/h 93% 0.0 mm CLR
08:55 8.7 °C 7.5 °C 1019.9 hPa West 5.6 km/h 5.6 km/h 92% 0.0 mm CLR
09:00 8.6 °C 7.2 °C 1019.9 hPa SW 6.0 km/h 6.0 km/h 91% 0.0 mm CLR
09:05 8.7 °C 7.3 °C 1019.9 hPa SW 5.6 km/h 5.6 km/h 91% 0.0 mm CLR
09:10 8.8 °C 7.4 °C 1020.9 hPa WSW 4.2 km/h 4.2 km/h 91% 0.0 mm BKN
09:15 8.8 °C 7.2 °C 1020.9 hPa West 5.6 km/h 5.6 km/h 90% 0.0 mm CLR
09:20 9.0 °C 7.4 °C 1020.9 hPa SW 5.6 km/h 5.6 km/h 90% 0.0 mm CLR
09:25 9.3 °C 7.7 °C 1020.9 hPa SSW 3.7 km/h   90% 0.0 mm CLR
09:30 9.5 °C 7.8 °C 1020.9 hPa Calm     89% 0.0 mm CLR
09:35 9.6 °C 7.9 °C 1020.9 hPa Calm     89% 0.0 mm CLR
09:40 10.0 °C 8.3 °C 1020.9 hPa East 1.9 km/h   89% 0.0 mm CLR
09:45 10.4 °C 8.5 °C 1020.9 hPa SW 5.6 km/h 5.6 km/h 88% 0.0 mm CLR
09:50 10.5 °C 8.4 °C 1020.9 hPa WSW 5.6 km/h 5.6 km/h 87% 0.0 mm CLR
09:55 10.9 °C 8.8 °C 1020.9 hPa South 2.3 km/h 2.3 km/h 87% 0.0 mm CLR
10:00 11.2 °C 8.9 °C 1020.9 hPa SE 5.6 km/h 5.6 km/h 86% 0.0 mm CLR
10:05 11.5 °C 9.2 °C 1020.9 hPa East 5.6 km/h 5.6 km/h 86% 0.0 mm CLR
10:10 11.5 °C 9.1 °C 1020.9 hPa SE 5.6 km/h 5.6 km/h 85% 0.0 mm CLR
10:15 11.7 °C 9.3 °C 1020.9 hPa WNW 4.7 km/h   85% 0.0 mm CLR
10:20 12.0 °C 9.6 °C 1020.9 hPa SSE 3.7 km/h 3.7 km/h 85% 0.0 mm CLR
10:25 12.4 °C 9.8 °C 1020.9 hPa Calm     84% 0.0 mm CLR
10:30 12.6 °C 9.8 °C 1020.9 hPa SW 5.6 km/h 5.6 km/h 83% 0.0 mm CLR
10:35 12.5 °C 9.7 °C 1020.9 hPa SE 3.7 km/h   83% 0.0 mm CLR
10:40 12.9 °C 10.1 °C 1020.9 hPa WSW 5.6 km/h 5.6 km/h 83% 0.0 mm CLR
10:45 13.1 °C 9.9 °C 1020.9 hPa WSW 6.4 km/h 6.4 km/h 81% 0.0 mm CLR
10:50 13.4 °C 10.2 °C 1020.9 hPa SW 6.0 km/h 6.0 km/h 81% 0.0 mm CLR
10:55 13.7 °C 10.5 °C 1020.9 hPa SSW 4.2 km/h 4.2 km/h 81% 0.0 mm CLR
11:00 14.0 °C 10.4 °C 1020.9 hPa ENE 2.3 km/h   79% 0.0 mm CLR
11:05 13.9 °C 10.3 °C 1020.9 hPa ENE 5.6 km/h 5.6 km/h 79% 0.0 mm CLR
11:10 14.4 °C 10.6 °C 1019.9 hPa NE 2.7 km/h   78% 0.0 mm CLR
11:15 14.8 °C 11.0 °C 1019.9 hPa SW 5.6 km/h 5.6 km/h 78% 0.0 mm CLR
11:20 15.1 °C 11.1 °C 1019.9 hPa SW 5.6 km/h 5.6 km/h 77% 0.0 mm CLR
11:25 15.5 °C 11.3 °C 1019.9 hPa SSW 3.1 km/h   76% 0.0 mm CLR
11:30 15.7 °C 11.3 °C 1019.9 hPa NNE 3.7 km/h 3.7 km/h 75% 0.0 mm CLR
11:35 15.8 °C 11.2 °C 1019.9 hPa West 6.9 km/h 6.9 km/h 74% 0.0 mm CLR
11:40 16.0 °C 11.4 °C 1019.9 hPa WSW 5.6 km/h 5.6 km/h 74% 0.0 mm CLR
11:45 16.3 °C 11.2 °C 1019.9 hPa North 5.6 km/h 5.6 km/h 72% 0.0 mm CLR
11:50 16.5 °C 11.7 °C 1019.9 hPa WSW 5.6 km/h 5.6 km/h 73% 0.0 mm CLR
11:55 16.4 °C 11.3 °C 1020.9 hPa West 9.2 km/h 9.2 km/h 72% 0.0 mm CLR
12:00 16.7 °C 11.6 °C 1020.9 hPa SW 9.3 km/h 9.3 km/h 72% 0.0 mm CLR
12:05 16.9 °C 11.4 °C 1020.9 hPa West 9.3 km/h 9.3 km/h 70% 0.0 mm CLR
12:10 16.9 °C 11.4 °C 1019.9 hPa West 7.4 km/h 7.4 km/h 70% 0.0 mm CLR
12:15 16.9 °C 11.4 °C 1019.9 hPa NW 7.4 km/h 7.4 km/h 70% 0.0 mm CLR
12:20 16.9 °C 11.4 °C 1019.9 hPa SW 7.4 km/h 7.4 km/h 70% 0.0 mm CLR
12:25 17.7 °C 11.7 °C 1020.9 hPa WSW 7.7 km/h 7.7 km/h 68% 0.0 mm CLR
12:30 17.9 °C 11.7 °C 1020.9 hPa SW 7.4 km/h 7.4 km/h 67% 0.0 mm CLR
12:35 18.1 °C 11.7 °C 1020.9 hPa NW 7.4 km/h 7.4 km/h 66% 0.0 mm CLR
12:40 18.0 °C 11.3 °C 1019.9 hPa NW 5.6 km/h 5.6 km/h 65% 0.0 mm CLR
12:45 18.3 °C 11.6 °C 1019.9 hPa West 7.7 km/h 7.7 km/h 65% 0.0 mm CLR
12:50 18.4 °C 11.4 °C 1019.9 hPa WNW 6.4 km/h   64% 0.0 mm CLR
12:55 18.6 °C 11.7 °C 1018.8 hPa WSW 7.4 km/h 7.4 km/h 64% 0.0 mm CLR
13:00 18.8 °C 12.1 °C 1018.8 hPa West 9.5 km/h 9.5 km/h 65% 0.0 mm CLR
13:05 18.6 °C 11.7 °C 1018.8 hPa NNE 6.4 km/h 6.4 km/h 64% 0.0 mm CLR
13:10 18.6 °C 11.7 °C 1018.8 hPa WSW 9.3 km/h 9.3 km/h 64% 0.0 mm CLR
13:15 19.1 °C 12.1 °C 1018.8 hPa West 9.5 km/h 9.5 km/h 64% 0.0 mm CLR
13:20 19.2 °C 12.2 °C 1018.8 hPa West 11.6 km/h 11.6 km/h 64% 0.0 mm CLR
13:25 19.5 °C 11.8 °C 1018.8 hPa WNW 7.4 km/h 7.4 km/h 61% 0.0 mm CLR
13:30 19.8 °C 12.3 °C 1018.8 hPa WSW 11.6 km/h 11.6 km/h 62% 0.0 mm CLR
13:35 20.1 °C 12.6 °C 1018.8 hPa West 6.4 km/h 6.4 km/h 62% 0.0 mm CLR
13:40 20.0 °C 12.2 °C 1018.8 hPa West 11.6 km/h 11.6 km/h 61% 0.0 mm CLR
13:45 20.0 °C 12.2 °C 1018.8 hPa West 8.2 km/h 8.2 km/h 61% 0.0 mm CLR
13:50 20.5 °C 12.4 °C 1018.8 hPa North 5.6 km/h 5.6 km/h 60% 0.0 mm CLR
13:55 20.6 °C 12.6 °C 1018.8 hPa West 5.6 km/h 5.6 km/h 60% 0.0 mm CLR
13:57 20.9 °C 12.8 °C 1018.8 hPa SSW 4.7 km/h 4.7 km/h 60% 0.0 mm CLR
14:02 21.1 °C 12.2 °C 1018.8 hPa North 5.6 km/h 5.6 km/h 57% 0.0 mm CLR
14:07 21.1 °C 12.5 °C 1018.8 hPa West 5.6 km/h   58% 0.0 mm CLR
14:12 21.4 °C 12.0 °C 1018.8 hPa NNW 5.6 km/h 5.6 km/h 55% 0.0 mm CLR
14:17 21.1 °C 12.5 °C 1018.8 hPa SSW 3.7 km/h 3.7 km/h 58% 0.0 mm CLR
14:22 21.6 °C 12.7 °C 1018.8 hPa East 5.6 km/h 5.6 km/h 57% 0.0 mm CLR
14:27 22.0 °C 13.1 °C 1018.8 hPa WNW 7.4 km/h 7.4 km/h 57% 0.0 mm CLR
14:32 21.6 °C 12.4 °C 1018.8 hPa WNW 7.4 km/h 7.4 km/h 56% 0.0 mm CLR
14:37 21.5 °C 11.5 °C 1018.8 hPa WNW 10.5 km/h 10.5 km/h 53% 0.0 mm CLR
14:42 21.9 °C 12.7 °C 1018.8 hPa SW 4.7 km/h 4.7 km/h 56% 0.0 mm CLR
14:47 21.5 °C 11.2 °C 1018.8 hPa North 9.3 km/h 9.3 km/h 52% 0.0 mm CLR
14:52 21.4 °C 11.4 °C 1018.8 hPa North 6.4 km/h 6.4 km/h 53% 0.0 mm CLR
14:57 21.4 °C 12.0 °C 1018.8 hPa SW 5.6 km/h 5.6 km/h 55% 0.0 mm CLR
15:02 22.5 °C 12.7 °C 1018.8 hPa WNW 7.7 km/h 7.7 km/h 54% 0.0 mm CLR
15:07 22.4 °C 12.3 °C 1018.8 hPa NW 5.1 km/h   53% 0.0 mm CLR
15:12 22.3 °C 11.9 °C 1018.8 hPa NNW 5.6 km/h 5.6 km/h 52% 0.0 mm CLR
15:17 22.4 °C 12.1 °C 1018.8 hPa WNW 6.0 km/h 6.0 km/h 52% 0.0 mm CLR
15:22 22.1 °C 11.8 °C 1018.8 hPa NE 5.6 km/h 5.6 km/h 52% 0.0 mm CLR
15:27 22.1 °C 11.8 °C 1018.8 hPa NNE 5.6 km/h 5.6 km/h 52% 0.0 mm CLR
15:32 22.0 °C 12.0 °C 1018.8 hPa NNE 1.9 km/h   53% 0.0 mm CLR
15:37 22.0 °C 12.0 °C 1018.8 hPa South 8.2 km/h 8.2 km/h 53% 0.0 mm CLR
15:42 22.0 °C 12.0 °C 1018.8 hPa West 5.6 km/h 5.6 km/h 53% 0.0 mm CLR
15:47 22.0 °C 12.0 °C 1018.8 hPa NNW 7.4 km/h 7.4 km/h 53% 0.0 mm CLR
15:52 22.0 °C 12.0 °C 1017.8 hPa North 7.7 km/h 7.7 km/h 53% 0.0 mm CLR
16:02 22.5 °C 12.2 °C 1017.8 hPa WSW 6.9 km/h 6.9 km/h 52% 0.0 mm CLR
16:07 22.6 °C 12.2 °C 1017.8 hPa North 5.6 km/h 5.6 km/h 52% 0.0 mm CLR
16:12 23.0 °C 12.9 °C 1018.8 hPa West 6.4 km/h 6.4 km/h 53% 0.0 mm CLR
16:17 23.5 °C 13.1 °C 1018.8 hPa North 1.9 km/h   52% 0.0 mm CLR
16:22 23.3 °C 12.9 °C 1018.8 hPa West 3.7 km/h   52% 0.0 mm CLR
16:27 23.3 °C 12.6 °C 1018.8 hPa West 6.9 km/h 6.9 km/h 51% 0.0 mm CLR
16:32 23.0 °C 12.3 °C 1018.8 hPa WSW 6.4 km/h 6.4 km/h 51% 0.0 mm CLR
16:37 23.1 °C 12.7 °C 1018.8 hPa SW 12.1 km/h 12.1 km/h 52% 0.0 mm CLR
16:42 22.7 °C 12.1 °C 1017.8 hPa SW 7.4 km/h 7.4 km/h 51% 0.0 mm CLR
16:47 23.0 °C 12.3 °C 1017.8 hPa NNE 4.7 km/h   51% 0.0 mm CLR
16:52 22.9 °C 11.9 °C 1018.8 hPa West 11.1 km/h 11.1 km/h 50% 0.0 mm CLR
16:57 22.8 °C 12.1 °C 1018.8 hPa West 5.6 km/h 5.6 km/h 51% 0.0 mm CLR
17:02 23.0 °C 12.0 °C 1018.8 hPa West 3.7 km/h 3.7 km/h 50% 0.0 mm CLR
17:07 23.4 °C 12.4 °C 1018.8 hPa NW 7.4 km/h 7.4 km/h 50% 0.0 mm CLR
17:12 22.7 °C 11.4 °C 1018.8 hPa West 11.3 km/h 11.3 km/h 49% 0.0 mm CLR
17:17 22.6 °C 11.7 °C 1018.8 hPa West 11.1 km/h 11.1 km/h 50% 0.0 mm CLR
17:22 22.5 °C 11.2 °C 1018.8 hPa West 8.2 km/h 8.2 km/h 49% 0.0 mm CLR
17:27 22.4 °C 11.2 °C 1018.8 hPa West 5.6 km/h 5.6 km/h 49% 0.0 mm CLR
17:32 22.5 °C 10.9 °C 1018.8 hPa West 7.4 km/h 7.4 km/h 48% 0.0 mm CLR
17:37 22.5 °C 10.9 °C 1018.8 hPa WSW 7.7 km/h 7.7 km/h 48% 0.0 mm CLR
17:42 22.5 °C 10.6 °C 1018.8 hPa WNW 5.6 km/h 5.6 km/h 47% 0.0 mm CLR
17:47 22.5 °C 10.6 °C 1018.8 hPa WNW 6.0 km/h 6.0 km/h 47% 0.0 mm CLR
17:52 22.3 °C 10.4 °C 1017.8 hPa WSW 5.6 km/h 5.6 km/h 47% 0.0 mm CLR
17:57 22.3 °C 10.4 °C 1017.8 hPa West 5.6 km/h 5.6 km/h 47% 0.0 mm CLR
18:02 22.3 °C 10.4 °C 1017.8 hPa West 3.7 km/h 3.7 km/h 47% 0.0 mm CLR
18:07 22.3 °C 10.4 °C 1017.8 hPa West 4.2 km/h 4.2 km/h 47% 0.0 mm CLR
18:12 21.8 °C 10.6 °C 1018.8 hPa West 1.9 km/h   49% 0.0 mm CLR
18:17 21.5 °C 10.3 °C 1018.8 hPa Calm     49% 0.0 mm CLR
18:27 21.5 °C 10.3 °C 1018.8 hPa ENE 5.6 km/h 5.6 km/h 49% 0.0 mm CLR
18:32 20.4 °C 9.6 °C 1018.8 hPa NE 5.6 km/h 5.6 km/h 50% 0.0 mm CLR
18:37 19.5 °C 9.7 °C 1018.8 hPa ENE 6.0 km/h 6.0 km/h 53% 0.0 mm CLR
18:42 19.0 °C 9.5 °C 1018.8 hPa ENE 5.6 km/h 5.6 km/h 54% 0.0 mm CLR
18:47 18.6 °C 9.4 °C 1018.8 hPa ENE 5.6 km/h 5.6 km/h 55% 0.0 mm CLR
18:52 18.3 °C 9.4 °C 1018.8 hPa NE 7.4 km/h 7.4 km/h 56% 0.0 mm CLR
18:57 17.9 °C 9.5 °C 1018.8 hPa NE 7.7 km/h 7.7 km/h 58% 0.0 mm CLR
19:02 17.7 °C 9.8 °C 1018.8 hPa ENE 7.7 km/h 7.7 km/h 60% 0.0 mm CLR
19:07 17.5 °C 10.1 °C 1018.8 hPa ENE 9.3 km/h 9.3 km/h 62% 0.0 mm CLR
19:12 17.4 °C 10.1 °C 1018.8 hPa East 8.2 km/h 8.2 km/h 62% 0.0 mm CLR
19:17 17.3 °C 9.9 °C 1018.8 hPa ENE 7.4 km/h 7.4 km/h 62% 0.0 mm CLR
19:22 17.2 °C 9.8 °C 1018.8 hPa ENE 7.7 km/h 7.7 km/h 62% 0.0 mm CLR
19:27 17.0 °C 9.9 °C 1018.8 hPa East 8.2 km/h 8.2 km/h 63% 0.0 mm CLR
19:32 17.0 °C 9.9 °C 1018.8 hPa ENE 11.1 km/h 11.1 km/h 63% 0.0 mm CLR
19:37 17.0 °C 10.1 °C 1018.8 hPa ENE 9.5 km/h 9.5 km/h 64% 0.0 mm CLR
19:42 16.9 °C 10.1 °C 1018.8 hPa East 7.7 km/h 7.7 km/h 64% 0.0 mm CLR
19:47 16.8 °C 10.2 °C 1018.8 hPa East 7.7 km/h 7.7 km/h 65% 0.0 mm CLR
19:52 16.7 °C 10.1 °C 1018.8 hPa SE 11.3 km/h 11.3 km/h 65% 0.0 mm CLR
19:57 16.7 °C 10.1 °C 1019.9 hPa SE 5.6 km/h 5.6 km/h 65% 0.0 mm CLR
20:02 16.5 °C 9.9 °C 1019.9 hPa East 6.0 km/h 6.0 km/h 65% 0.0 mm CLR
20:07 16.2 °C 9.8 °C 1019.9 hPa East 7.4 km/h 7.4 km/h 66% 0.0 mm CLR
20:12 16.1 °C 9.9 °C 1019.9 hPa East 8.2 km/h 8.2 km/h 67% 0.0 mm CLR
20:17 15.9 °C 10.0 °C 1019.9 hPa East 8.2 km/h 8.2 km/h 68% 0.0 mm CLR
20:22 15.9 °C 10.0 °C 1019.9 hPa East 6.4 km/h 6.4 km/h 68% 0.0 mm CLR
20:27 15.6 °C 9.7 °C 1018.8 hPa ENE 7.7 km/h 7.7 km/h 68% 0.0 mm CLR
20:32 15.5 °C 9.6 °C 1018.8 hPa ENE 3.7 km/h 3.7 km/h 68% 0.0 mm CLR
20:37 15.5 °C 9.6 °C 1019.9 hPa NNE 5.6 km/h 5.6 km/h 68% 0.0 mm CLR
20:42 15.5 °C 9.6 °C 1019.9 hPa ENE 9.3 km/h 9.3 km/h 68% 0.0 mm CLR
20:47 15.2 °C 9.8 °C 1019.9 hPa East 7.7 km/h 7.7 km/h 70% 0.0 mm CLR
20:52 15.1 °C 9.7 °C 1019.9 hPa ENE 8.2 km/h 8.2 km/h 70% 0.0 mm CLR
20:57 14.9 °C 9.7 °C 1019.9 hPa ENE 7.4 km/h 7.4 km/h 71% 0.0 mm CLR
21:02 14.8 °C 9.6 °C 1019.9 hPa East 7.7 km/h 7.7 km/h 71% 0.0 mm CLR
21:07 14.6 °C 9.6 °C 1019.9 hPa East 9.3 km/h 9.3 km/h 72% 0.0 mm CLR
21:12 14.5 °C 9.5 °C 1019.9 hPa NE 5.6 km/h 5.6 km/h 72% 0.0 mm CLR
21:17 14.4 °C 9.4 °C 1019.9 hPa ENE 5.6 km/h 5.6 km/h 72% 0.0 mm CLR
21:22 14.4 °C 9.4 °C 1019.9 hPa East 5.6 km/h 5.6 km/h 72% 0.0 mm CLR
21:27 14.3 °C 9.3 °C 1019.9 hPa Calm     72% 0.0 mm CLR
21:32 14.3 °C 9.7 °C 1019.9 hPa NE 8.2 km/h 8.2 km/h 74% 0.0 mm CLR
21:37 14.0 °C 9.6 °C 1019.9 hPa NNE 9.3 km/h 9.3 km/h 75% 0.0 mm CLR
21:42 13.6 °C 9.7 °C 1020.9 hPa NW 7.4 km/h 7.4 km/h 77% 0.0 mm CLR
21:47 13.5 °C 9.3 °C 1020.9 hPa North 7.7 km/h 7.7 km/h 76% 0.0 mm CLR
21:52 13.3 °C 9.3 °C 1020.9 hPa NNE 6.4 km/h 6.4 km/h 77% 0.0 mm CLR
21:57 13.2 °C 9.1 °C 1020.9 hPa WNW 2.3 km/h   76% 0.0 mm CLR
Meteosantamaria, Umbria, ITALIA
per gentile concessione di Weather Underground - 3.75 mb